Time;durP1;ratioP1;P1;durP2;ratioP2;P2;SDS_P1;SDS_P2;PMS_P1;PMS_P2;Temp;Humidity;BMP_temperature;BMP_pressure;BME280_temperature;BME280_humidity;BME280_pressure;Samples;Min_cycle;Max_cycle;Signal;HPM_P1;HPM_P2
2022/02/24 00:00:51;;;;;;;;;;;7.80;99.90;;;;;;5092532;28;19916;-49
2022/02/24 00:03:17;;;;;;;;;;;7.80;99.90;;;;;;5092330;28;19915;-50
2022/02/24 00:05:42;;;;;;;;;;;7.80;99.90;;;;;;5092400;28;20016;-51
2022/02/24 00:08:08;;;;;;;;;;;7.70;99.90;;;;;;5092056;28;19920;-51
2022/02/24 00:10:33;;;;;;;;;;;7.70;99.90;;;;;;5092203;28;19916;-51
2022/02/24 00:12:59;;;;;;;;;;;7.70;99.90;;;;;;5092030;28;19916;-49
2022/02/24 00:15:25;;;;;;;;;;;7.70;99.90;;;;;;5092319;28;20028;-50
2022/02/24 00:17:50;;;;;;;;;;;7.70;99.90;;;;;;5092500;28;20011;-51
2022/02/24 00:20:16;;;;;;;;;;;7.70;99.90;;;;;;5092516;28;19928;-51
2022/02/24 00:22:42;;;;;;;;;;;7.70;99.90;;;;;;5092092;28;20373;-52
2022/02/24 00:25:08;;;;;;;;;;;7.70;99.90;;;;;;5092002;28;20361;-51
2022/02/24 00:27:33;;;;;;;;;;;7.70;99.90;;;;;;5092229;28;19927;-53
2022/02/24 00:29:59;;;;;;;;;;;7.70;99.90;;;;;;5092266;28;19916;-51
2022/02/24 00:32:25;;;;;;;;;;;7.70;99.90;;;;;;5092080;28;19961;-51
2022/02/24 00:34:50;;;;;;;;;;;7.70;99.90;;;;;;5091864;28;19920;-51
2022/02/24 00:37:16;;;;;;;;;;;7.70;99.90;;;;;;5091919;28;19920;-52
2022/02/24 00:39:43;;;;;;;;;;;7.70;99.90;;;;;;5091914;28;19916;-51
2022/02/24 00:42:08;;;;;;;;;;;7.70;99.90;;;;;;5092241;28;19916;-51
2022/02/24 00:44:34;;;;;;;;;;;7.70;99.90;;;;;;5092102;28;19916;-50
2022/02/24 00:46:59;;;;;;;;;;;7.70;99.90;;;;;;5090478;28;20010;-52
2022/02/24 00:49:25;;;;;;;;;;;7.70;99.90;;;;;;5092229;28;19916;-52
2022/02/24 00:51:50;;;;;;;;;;;7.70;99.90;;;;;;5090498;28;20006;-52
2022/02/24 00:54:16;;;;;;;;;;;7.70;99.90;;;;;;5091752;28;19920;-50
2022/02/24 00:56:42;;;;;;;;;;;7.70;99.90;;;;;;5092231;28;20293;-51
2022/02/24 00:59:07;;;;;;;;;;;8.10;99.90;;;;;;5093768;28;20445;-48
2022/02/24 01:01:33;;;;;;;;;;;7.70;99.90;;;;;;5095722;28;19916;-52
2022/02/24 01:03:58;;;;;;;;;;;7.70;99.90;;;;;;5095570;28;19916;-51
2022/02/24 01:06:24;;;;;;;;;;;7.70;99.90;;;;;;5095347;28;19969;-51
2022/02/24 01:08:50;;;;;;;;;;;7.70;99.90;;;;;;5095296;28;20055;-51
2022/02/24 01:11:15;;;;;;;;;;;7.70;99.90;;;;;;5095177;28;20012;-51
2022/02/24 01:13:41;;;;;;;;;;;7.70;99.90;;;;;;5095446;28;19916;-52
2022/02/24 01:16:06;;;;;;;;;;;7.70;99.90;;;;;;5095321;28;19916;-52
2022/02/24 01:18:32;;;;;;;;;;;7.70;99.90;;;;;;5095430;28;19926;-51
2022/02/24 01:20:58;;;;;;;;;;;7.70;99.90;;;;;;5094979;28;19930;-50
2022/02/24 01:23:24;;;;;;;;;;;7.60;99.90;;;;;;5093716;28;19970;-51
2022/02/24 01:25:50;;;;;;;;;;;7.60;99.90;;;;;;5095239;28;19919;-49
2022/02/24 01:28:15;;;;;;;;;;;7.60;99.90;;;;;;5094967;28;20285;-52
2022/02/24 01:30:41;;;;;;;;;;;7.60;99.90;;;;;;5094837;28;19922;-50
2022/02/24 01:33:07;;;;;;;;;;;7.60;99.90;;;;;;5094742;28;19963;-51
2022/02/24 01:35:33;;;;;;;;;;;7.60;99.90;;;;;;5095134;28;20397;-51
2022/02/24 01:37:58;;;;;;;;;;;7.60;99.90;;;;;;5095000;28;19920;-51
2022/02/24 01:40:24;;;;;;;;;;;7.60;99.90;;;;;;5094921;28;20417;-52
2022/02/24 01:42:49;;;;;;;;;;;7.70;99.90;;;;;;5094880;28;20408;-50
2022/02/24 01:45:15;;;;;;;;;;;7.60;99.90;;;;;;5094751;28;20293;-51
2022/02/24 01:47:41;;;;;;;;;;;7.70;99.90;;;;;;5093287;28;19920;-52
2022/02/24 01:50:08;;;;;;;;;;;7.70;99.90;;;;;;5094636;28;19916;-51
2022/02/24 01:52:33;;;;;;;;;;;7.60;99.90;;;;;;5094423;28;19916;-51
2022/02/24 01:54:59;;;;;;;;;;;7.60;99.90;;;;;;5094697;28;20255;-50
2022/02/24 01:57:25;;;;;;;;;;;7.60;99.90;;;;;;5094538;28;20365;-49
2022/02/24 01:59:51;;;;;;;;;;;7.60;99.90;;;;;;5094360;28;20361;-51
2022/02/24 02:02:16;;;;;;;;;;;7.60;99.90;;;;;;5094397;28;19920;-51
2022/02/24 02:04:43;;;;;;;;;;;7.60;99.90;;;;;;5094296;28;19919;-51
2022/02/24 02:07:09;;;;;;;;;;;7.60;99.90;;;;;;5094033;28;20278;-50
2022/02/24 02:09:35;;;;;;;;;;;7.60;99.90;;;;;;5094198;28;19916;-50
2022/02/24 02:12:00;;;;;;;;;;;7.50;99.90;;;;;;5093447;28;20286;-51
2022/02/24 02:14:26;;;;;;;;;;;7.50;99.90;;;;;;5094176;28;20431;-52
2022/02/24 02:16:52;;;;;;;;;;;7.50;99.90;;;;;;5094077;28;20319;-52
2022/02/24 02:19:18;;;;;;;;;;;7.50;99.90;;;;;;5092815;28;20019;-50
2022/02/24 02:21:44;;;;;;;;;;;7.50;99.90;;;;;;5094002;28;20038;-52
2022/02/24 02:24:10;;;;;;;;;;;7.50;99.90;;;;;;5094265;28;20367;-52
2022/02/24 02:26:36;;;;;;;;;;;7.50;99.90;;;;;;5093871;28;20266;-50
2022/02/24 02:29:02;;;;;;;;;;;7.50;99.90;;;;;;5092463;28;19923;-51
2022/02/24 02:31:28;;;;;;;;;;;7.50;99.90;;;;;;5093864;28;20021;-51
2022/02/24 02:34:03;;;;;;;;;;;7.50;99.90;;;;;;5093599;28;19924;-48
2022/02/24 02:36:29;;;;;;;;;;;7.40;99.90;;;;;;5093941;28;19916;-52
2022/02/24 02:38:55;;;;;;;;;;;7.40;99.90;;;;;;5093771;28;19923;-51
2022/02/24 02:41:21;;;;;;;;;;;7.50;99.90;;;;;;5094015;28;19924;-50
2022/02/24 02:43:47;;;;;;;;;;;7.40;99.90;;;;;;5093870;28;19974;-50
2022/02/24 02:46:12;;;;;;;;;;;7.40;99.90;;;;;;5093656;28;19951;-51
2022/02/24 02:48:38;;;;;;;;;;;7.40;99.90;;;;;;5093467;28;19919;-49
2022/02/24 02:51:03;;;;;;;;;;;7.40;99.90;;;;;;5093386;28;19915;-50
2022/02/24 02:53:29;;;;;;;;;;;7.40;99.90;;;;;;5093261;28;19916;-50
2022/02/24 02:55:54;;;;;;;;;;;7.30;99.90;;;;;;5093622;28;19923;-49
2022/02/24 02:58:20;;;;;;;;;;;7.30;99.90;;;;;;5092093;28;19923;-51
2022/02/24 03:00:46;;;;;;;;;;;7.20;99.90;;;;;;5093127;28;19955;-51
2022/02/24 03:03:11;;;;;;;;;;;7.20;99.90;;;;;;5093215;28;19916;-52
2022/02/24 03:05:37;;;;;;;;;;;7.20;99.90;;;;;;5093136;28;20012;-52
2022/02/24 03:08:03;;;;;;;;;;;7.10;99.90;;;;;;5093245;28;20286;-51
2022/02/24 03:10:28;;;;;;;;;;;7.10;99.90;;;;;;5093164;28;19922;-48
2022/02/24 03:12:54;;;;;;;;;;;7.10;99.90;;;;;;5093117;28;19915;-52
2022/02/24 03:15:20;;;;;;;;;;;7.00;99.90;;;;;;5092978;28;19916;-51
2022/02/24 03:17:47;;;;;;;;;;;7.00;99.90;;;;;;5092976;28;19920;-49
2022/02/24 03:20:12;;;;;;;;;;;7.00;99.90;;;;;;5092749;28;20007;-51
2022/02/24 03:22:38;;;;;;;;;;;6.90;99.90;;;;;;5093201;28;20363;-51
2022/02/24 03:25:04;;;;;;;;;;;6.90;99.90;;;;;;5092986;28;19920;-50
2022/02/24 03:27:30;;;;;;;;;;;6.90;99.90;;;;;;5092802;28;19919;-48
2022/02/24 03:29:55;;;;;;;;;;;6.90;99.90;;;;;;5092766;28;19920;-51
2022/02/24 03:32:21;;;;;;;;;;;6.80;99.90;;;;;;5092619;28;19916;-51
2022/02/24 03:34:46;;;;;;;;;;;6.90;99.90;;;;;;5092611;28;19969;-52
2022/02/24 03:37:12;;;;;;;;;;;6.80;99.90;;;;;;5092757;28;20006;-52
2022/02/24 03:39:38;;;;;;;;;;;6.80;99.90;;;;;;5092636;28;19916;-51
2022/02/24 03:42:04;;;;;;;;;;;6.90;99.90;;;;;;5092381;28;19962;-52
2022/02/24 03:44:29;;;;;;;;;;;6.90;99.90;;;;;;5092402;28;20415;-50
2022/02/24 03:46:55;;;;;;;;;;;6.90;99.90;;;;;;5092668;28;19924;-52
2022/02/24 03:49:20;;;;;;;;;;;6.90;99.90;;;;;;5092326;28;19969;-51
2022/02/24 03:51:46;;;;;;;;;;;6.90;99.90;;;;;;5092496;28;19927;-51
2022/02/24 03:54:11;;;;;;;;;;;6.90;99.90;;;;;;5092605;28;19916;-51
2022/02/24 03:56:37;;;;;;;;;;;7.00;99.90;;;;;;5092393;28;19916;-50
2022/02/24 03:59:02;;;;;;;;;;;7.00;99.90;;;;;;5092453;28;20395;-50
2022/02/24 04:01:28;;;;;;;;;;;7.00;99.90;;;;;;5092596;28;19920;-51
2022/02/24 04:03:53;;;;;;;;;;;7.00;99.90;;;;;;5091032;28;19985;-52
2022/02/24 04:06:19;;;;;;;;;;;7.00;99.90;;;;;;5092559;28;19916;-47
2022/02/24 04:08:44;;;;;;;;;;;7.00;99.90;;;;;;5092271;28;20306;-52
2022/02/24 04:11:10;;;;;;;;;;;7.00;99.90;;;;;;5092280;28;19923;-50
2022/02/24 04:13:35;;;;;;;;;;;6.90;99.90;;;;;;5091416;28;20289;-51
2022/02/24 04:16:01;;;;;;;;;;;6.90;99.90;;;;;;5092491;28;19998;-51
2022/02/24 04:18:27;;;;;;;;;;;7.00;99.90;;;;;;5092219;28;19916;-50
2022/02/24 04:20:52;;;;;;;;;;;7.00;99.90;;;;;;5092272;28;19963;-51
2022/02/24 04:23:18;;;;;;;;;;;6.90;99.90;;;;;;5092235;28;19920;-50
2022/02/24 04:25:43;;;;;;;;;;;7.00;99.90;;;;;;5092242;28;20381;-48
2022/02/24 04:28:09;;;;;;;;;;;6.90;99.90;;;;;;5092458;28;19924;-48
2022/02/24 04:30:35;;;;;;;;;;;7.00;99.90;;;;;;5092161;28;20326;-51
2022/02/24 04:33:00;;;;;;;;;;;6.90;99.90;;;;;;5091946;28;19998;-52
2022/02/24 04:35:26;;;;;;;;;;;6.90;99.90;;;;;;5095866;28;20356;-51
2022/02/24 04:37:51;;;;;;;;;;;6.90;99.90;;;;;;5096233;28;20258;-51
2022/02/24 04:40:17;;;;;;;;;;;6.80;99.90;;;;;;5096035;28;19942;-49
2022/02/24 04:42:43;;;;;;;;;;;6.80;99.90;;;;;;5095756;28;20463;-52
2022/02/24 04:45:09;;;;;;;;;;;6.80;99.90;;;;;;5095789;28;19962;-50
2022/02/24 04:47:35;;;;;;;;;;;6.80;99.90;;;;;;5095633;28;19926;-50
2022/02/24 04:50:02;;;;;;;;;;;6.80;99.90;;;;;;5095887;28;19920;-51
2022/02/24 04:52:28;;;;;;;;;;;6.80;99.90;;;;;;5094794;28;19920;-50
2022/02/24 04:54:54;;;;;;;;;;;6.80;99.90;;;;;;5095516;28;20358;-51
2022/02/24 04:57:19;;;;;;;;;;;6.80;99.90;;;;;;5095636;28;19916;-52
2022/02/24 04:59:45;;;;;;;;;;;6.80;99.90;;;;;;5095584;28;20346;-52
2022/02/24 05:02:11;;;;;;;;;;;6.80;99.90;;;;;;5095406;28;19924;-50
2022/02/24 05:04:36;;;;;;;;;;;6.80;99.90;;;;;;5095668;28;19920;-50
2022/02/24 05:07:02;;;;;;;;;;;6.80;99.90;;;;;;5095449;28;20350;-51
2022/02/24 05:09:27;;;;;;;;;;;6.90;99.90;;;;;;5095445;28;19916;-52
2022/02/24 05:11:53;;;;;;;;;;;6.90;99.90;;;;;;5094274;28;20057;-50
2022/02/24 05:14:18;;;;;;;;;;;6.90;99.90;;;;;;5095312;28;19916;-51
2022/02/24 05:16:44;;;;;;;;;;;6.90;99.90;;;;;;5095345;28;20336;-50
2022/02/24 05:19:10;;;;;;;;;;;6.90;99.90;;;;;;5095556;28;19920;-52
2022/02/24 05:21:36;;;;;;;;;;;6.90;99.90;;;;;;5093935;28;19927;-48
2022/02/24 05:24:01;;;;;;;;;;;6.90;99.90;;;;;;5095261;28;19916;-50
2022/02/24 05:26:27;;;;;;;;;;;6.90;99.90;;;;;;5094890;28;19969;-49
2022/02/24 05:28:53;;;;;;;;;;;6.90;99.90;;;;;;5094971;28;19916;-51
2022/02/24 05:31:18;;;;;;;;;;;6.90;99.90;;;;;;5094837;28;19916;-49
2022/02/24 05:33:43;;;;;;;;;;;6.90;99.90;;;;;;5094759;28;19915;-50
2022/02/24 05:36:09;;;;;;;;;;;6.90;99.90;;;;;;5094619;28;19966;-48
2022/02/24 05:38:35;;;;;;;;;;;6.90;99.90;;;;;;5094959;28;19916;-49
2022/02/24 05:41:01;;;;;;;;;;;6.90;99.90;;;;;;5094765;28;19969;-50
2022/02/24 05:43:27;;;;;;;;;;;6.90;99.90;;;;;;5094772;28;19919;-50
2022/02/24 05:45:52;;;;;;;;;;;6.90;99.90;;;;;;5093383;28;19970;-49
2022/02/24 05:48:17;;;;;;;;;;;6.90;99.90;;;;;;5094666;28;20358;-51
2022/02/24 05:50:43;;;;;;;;;;;6.90;99.90;;;;;;5094810;28;19916;-51
2022/02/24 05:53:09;;;;;;;;;;;6.90;99.90;;;;;;5094782;28;19920;-49
2022/02/24 05:55:35;;;;;;;;;;;6.90;99.90;;;;;;5094629;28;20364;-50
2022/02/24 05:58:01;;;;;;;;;;;7.00;99.90;;;;;;5094506;28;19930;-51
2022/02/24 06:00:26;;;;;;;;;;;6.90;99.90;;;;;;5094478;28;19919;-49
2022/02/24 06:02:52;;;;;;;;;;;7.00;99.90;;;;;;5094473;28;20390;-49
2022/02/24 06:05:18;;;;;;;;;;;6.90;99.90;;;;;;5094382;28;19923;-50
2022/02/24 06:07:43;;;;;;;;;;;7.00;99.90;;;;;;5094104;28;19927;-51
2022/02/24 06:10:13;;;;;;;;;;;7.00;99.90;;;;;;5094186;28;20005;-52
2022/02/24 06:12:38;;;;;;;;;;;7.00;99.90;;;;;;5094129;28;19916;-51
2022/02/24 06:15:04;;;;;;;;;;;7.00;99.90;;;;;;5093975;28;19923;-49
2022/02/24 06:17:30;;;;;;;;;;;7.00;99.90;;;;;;5094288;28;19915;-52
2022/02/24 06:19:55;;;;;;;;;;;7.00;99.90;;;;;;5094109;28;19926;-50
2022/02/24 06:22:21;;;;;;;;;;;7.00;99.90;;;;;;5092952;28;19969;-47
2022/02/24 06:24:47;;;;;;;;;;;7.00;99.90;;;;;;5094011;28;20022;-51
2022/02/24 06:27:12;;;;;;;;;;;7.00;99.90;;;;;;5093941;28;19934;-51
2022/02/24 06:29:38;;;;;;;;;;;7.00;99.90;;;;;;5093731;28;19923;-52
2022/02/24 06:32:04;;;;;;;;;;;7.00;99.90;;;;;;5094002;28;19920;-51
2022/02/24 06:34:30;;;;;;;;;;;7.00;99.90;;;;;;5092507;28;19919;-51
2022/02/24 06:36:56;;;;;;;;;;;7.00;99.90;;;;;;5093713;28;19927;-50
2022/02/24 06:39:22;;;;;;;;;;;7.00;99.90;;;;;;5093652;28;19939;-50
2022/02/24 06:41:47;;;;;;;;;;;7.20;99.90;;;;;;5093894;28;20365;-51
2022/02/24 06:44:14;;;;;;;;;;;7.10;99.90;;;;;;5093642;28;19970;-50
2022/02/24 06:46:40;;;;;;;;;;;7.10;99.90;;;;;;5093932;28;19916;-50
2022/02/24 06:49:05;;;;;;;;;;;7.10;99.90;;;;;;5093606;28;19916;-51
2022/02/24 06:51:31;;;;;;;;;;;7.00;99.90;;;;;;5092194;28;20373;-50
2022/02/24 06:53:57;;;;;;;;;;;7.00;99.90;;;;;;5092444;28;19916;-51
2022/02/24 06:56:23;;;;;;;;;;;7.10;99.90;;;;;;5092991;28;19916;-51
2022/02/24 06:58:49;;;;;;;;;;;7.10;99.90;;;;;;5093032;28;20289;-51
2022/02/24 07:01:15;;;;;;;;;;;7.10;99.90;;;;;;5093447;28;19916;-50
2022/02/24 07:03:42;;;;;;;;;;;7.00;99.90;;;;;;5093315;28;19923;-50
2022/02/24 07:06:08;;;;;;;;;;;7.00;99.90;;;;;;5093117;28;19916;-49
2022/02/24 07:08:33;;;;;;;;;;;7.00;99.90;;;;;;5093082;28;19926;-52
2022/02/24 07:10:59;;;;;;;;;;;7.00;99.90;;;;;;5093264;28;19919;-51
2022/02/24 07:13:24;;;;;;;;;;;7.00;99.90;;;;;;5093013;28;20388;-51
2022/02/24 07:15:50;;;;;;;;;;;7.00;99.90;;;;;;5093251;28;19961;-48
2022/02/24 07:18:16;;;;;;;;;;;7.00;99.90;;;;;;5093094;28;19920;-51
2022/02/24 07:20:41;;;;;;;;;;;7.00;99.90;;;;;;5092807;28;19916;-50
2022/02/24 07:23:07;;;;;;;;;;;7.10;99.90;;;;;;5092893;28;19974;-50
2022/02/24 07:25:32;;;;;;;;;;;7.00;99.90;;;;;;5093046;28;19924;-53
2022/02/24 07:27:58;;;;;;;;;;;7.00;99.90;;;;;;5092711;28;19924;-52
2022/02/24 07:30:23;;;;;;;;;;;7.00;99.90;;;;;;5093011;28;19928;-51
2022/02/24 07:32:49;;;;;;;;;;;7.00;99.90;;;;;;5092778;28;20010;-51
2022/02/24 07:35:14;;;;;;;;;;;7.00;99.90;;;;;;5092607;28;19971;-52
2022/02/24 07:37:40;;;;;;;;;;;7.00;99.90;;;;;;5092710;28;19916;-50
2022/02/24 07:40:06;;;;;;;;;;;7.00;99.90;;;;;;5092547;28;19920;-51
2022/02/24 07:42:34;;;;;;;;;;;7.00;99.90;;;;;;5092493;28;19923;-52
2022/02/24 07:45:00;;;;;;;;;;;7.10;99.90;;;;;;5092498;28;20498;-50
2022/02/24 07:47:26;;;;;;;;;;;7.10;99.90;;;;;;5092506;28;19974;-52
2022/02/24 07:49:51;;;;;;;;;;;7.10;99.90;;;;;;5092648;28;19916;-48
2022/02/24 07:52:17;;;;;;;;;;;7.20;99.90;;;;;;5091108;28;20289;-53
2022/02/24 07:54:42;;;;;;;;;;;7.20;99.90;;;;;;5092493;28;19996;-49
2022/02/24 07:57:08;;;;;;;;;;;7.20;99.90;;;;;;5092297;28;20292;-53
2022/02/24 07:59:33;;;;;;;;;;;7.20;99.90;;;;;;5092600;28;20358;-50
2022/02/24 08:01:59;;;;;;;;;;;7.30;99.90;;;;;;5092280;28;19916;-48
2022/02/24 08:04:25;;;;;;;;;;;7.30;99.90;;;;;;5092354;28;20285;-50
2022/02/24 08:06:50;;;;;;;;;;;7.30;99.90;;;;;;5091244;28;20285;-52
2022/02/24 08:09:16;;;;;;;;;;;7.30;99.90;;;;;;5094813;28;20086;-52
2022/02/24 08:11:41;;;;;;;;;;;7.40;99.90;;;;;;5096302;28;19923;-51
2022/02/24 08:14:07;;;;;;;;;;;7.40;99.90;;;;;;5096626;28;20365;-51
2022/02/24 08:16:32;;;;;;;;;;;7.40;99.90;;;;;;5096378;28;19970;-51
2022/02/24 08:19:01;;;;;;;;;;;7.50;99.90;;;;;;5096358;28;19948;-52
2022/02/24 08:21:26;;;;;;;;;;;7.50;99.90;;;;;;5096316;28;19920;-52
2022/02/24 08:23:52;;;;;;;;;;;7.50;99.90;;;;;;5096505;28;19922;-50
2022/02/24 08:26:18;;;;;;;;;;;7.50;99.90;;;;;;5096135;28;19916;-50
2022/02/24 08:28:43;;;;;;;;;;;7.50;99.90;;;;;;5096399;28;20278;-51
2022/02/24 08:31:09;;;;;;;;;;;7.50;99.90;;;;;;5096287;28;20371;-52
2022/02/24 08:33:34;;;;;;;;;;;7.50;99.90;;;;;;5096116;28;20404;-52
2022/02/24 08:36:00;;;;;;;;;;;7.60;99.90;;;;;;5096212;28;19920;-51
2022/02/24 08:38:25;;;;;;;;;;;7.60;99.90;;;;;;5096145;28;19920;-52
2022/02/24 08:40:51;;;;;;;;;;;7.60;99.90;;;;;;5095931;28;19923;-51
2022/02/24 08:43:17;;;;;;;;;;;7.60;99.90;;;;;;5095722;28;19916;-50
2022/02/24 08:45:44;;;;;;;;;;;7.60;99.90;;;;;;5095773;28;19923;-52
2022/02/24 08:48:10;;;;;;;;;;;7.70;99.90;;;;;;5095858;28;19923;-52
2022/02/24 08:50:37;;;;;;;;;;;7.70;99.90;;;;;;5095847;28;20358;-52
2022/02/24 08:53:03;;;;;;;;;;;7.80;99.90;;;;;;5095977;28;19926;-52
2022/02/24 08:55:29;;;;;;;;;;;7.80;99.90;;;;;;5095849;28;20030;-52
2022/02/24 08:57:54;;;;;;;;;;;7.80;99.90;;;;;;5096016;28;20018;-52
2022/02/24 09:00:20;;;;;;;;;;;7.80;99.90;;;;;;5095741;28;19916;-53
2022/02/24 09:02:45;;;;;;;;;;;7.90;99.90;;;;;;5095697;28;19943;-49
2022/02/24 09:05:11;;;;;;;;;;;7.90;99.90;;;;;;5095524;28;19925;-49
2022/02/24 09:07:36;;;;;;;;;;;7.90;99.90;;;;;;5095392;28;19919;-50
2022/02/24 09:10:03;;;;;;;;;;;8.00;99.90;;;;;;5095363;28;19916;-53
2022/02/24 09:12:28;;;;;;;;;;;8.00;99.90;;;;;;5094293;28;19916;-53
2022/02/24 09:14:54;;;;;;;;;;;8.00;99.90;;;;;;5095265;28;20403;-51
2022/02/24 09:17:20;;;;;;;;;;;8.00;99.90;;;;;;5095036;28;19970;-50
2022/02/24 09:19:45;;;;;;;;;;;8.00;99.90;;;;;;5095326;28;19973;-51
2022/02/24 09:22:12;;;;;;;;;;;8.10;99.90;;;;;;5094978;28;19961;-52
2022/02/24 09:24:38;;;;;;;;;;;8.10;99.90;;;;;;5095072;28;19915;-51
2022/02/24 09:27:04;;;;;;;;;;;8.10;99.90;;;;;;5094935;28;19927;-52
2022/02/24 09:29:29;;;;;;;;;;;8.10;99.90;;;;;;5095135;28;19916;-51
2022/02/24 09:31:55;;;;;;;;;;;8.20;99.90;;;;;;5095147;28;19916;-50
2022/02/24 09:34:21;;;;;;;;;;;8.20;99.90;;;;;;5095215;28;19947;-52
2022/02/24 09:36:47;;;;;;;;;;;8.10;99.90;;;;;;5095237;28;19930;-51
2022/02/24 09:39:13;;;;;;;;;;;8.00;99.90;;;;;;5094736;28;20358;-51
2022/02/24 09:41:39;;;;;;;;;;;8.00;99.90;;;;;;5094724;28;19919;-53
2022/02/24 09:44:04;;;;;;;;;;;8.00;99.90;;;;;;5094863;28;19916;-52
2022/02/24 09:46:31;;;;;;;;;;;8.00;99.90;;;;;;5094908;28;20262;-49
2022/02/24 09:48:57;;;;;;;;;;;8.10;99.90;;;;;;5094531;28;19920;-52
2022/02/24 09:51:23;;;;;;;;;;;8.10;99.90;;;;;;5094630;28;19923;-52
2022/02/24 09:53:49;;;;;;;;;;;8.20;99.90;;;;;;5094516;28;19916;-50
2022/02/24 09:56:15;;;;;;;;;;;8.30;99.90;;;;;;5076591;28;19916;-51
2022/02/24 09:58:40;;;;;;;;;;;8.40;99.90;;;;;;5094729;28;19923;-53
2022/02/24 10:01:07;;;;;;;;;;;8.40;99.90;;;;;;5094483;28;20380;-51
2022/02/24 10:03:40;;;;;;;;;;;8.40;99.90;;;;;;5093035;28;19919;-51
2022/02/24 10:06:06;;;;;;;;;;;8.40;99.90;;;;;;5094296;28;20305;-51
2022/02/24 10:08:33;;;;;;;;;;;8.50;99.90;;;;;;5094149;28;19931;-52
2022/02/24 10:11:00;;;;;;;;;;;8.60;99.90;;;;;;5094341;28;19922;-51
2022/02/24 10:13:26;;;;;;;;;;;8.60;99.90;;;;;;5094248;28;20332;-53
2022/02/24 10:15:59;;;;;;;;;;;8.70;99.90;;;;;;5094154;28;20313;-52
2022/02/24 10:18:26;;;;;;;;;;;8.70;99.90;;;;;;5094151;28;19920;-51
2022/02/24 10:20:53;;;;;;;;;;;8.80;99.90;;;;;;5092725;28;19951;-51
2022/02/24 10:23:19;;;;;;;;;;;9.00;99.90;;;;;;5094463;28;19938;-52
2022/02/24 10:25:46;;;;;;;;;;;9.10;99.90;;;;;;5093678;28;20388;-51
2022/02/24 10:28:28;;;;;;;;;;;9.20;99.90;;;;;;5093941;28;19920;-53
2022/02/24 10:30:53;;;;;;;;;;;9.40;99.90;;;;;;5093532;28;19916;-52
2022/02/24 10:33:28;;;;;;;;;;;9.50;99.90;;;;;;5093305;28;20407;-51
2022/02/24 10:36:14;;;;;;;;;;;9.70;99.90;;;;;;5093662;28;19920;-51
2022/02/24 10:38:41;;;;;;;;;;;10.00;99.90;;;;;;5051316;28;20425;-51
2022/02/24 10:41:06;;;;;;;;;;;10.10;99.90;;;;;;5051118;28;19924;-52
2022/02/24 10:43:34;;;;;;;;;;;10.30;99.90;;;;;;5034547;28;20413;-53
2022/02/24 10:46:08;;;;;;;;;;;10.30;99.90;;;;;;5051119;28;19956;-51
2022/02/24 10:48:54;;;;;;;;;;;10.40;99.90;;;;;;5051042;28;19920;-51
2022/02/24 10:51:21;;;;;;;;;;;10.20;99.90;;;;;;5051399;28;19931;-50
2022/02/24 10:53:56;;;;;;;;;;;10.20;99.90;;;;;;5051172;28;20035;-53
2022/02/24 10:56:24;;;;;;;;;;;10.30;99.90;;;;;;5050880;28;20436;-52
2022/02/24 10:58:49;;;;;;;;;;;10.30;99.90;;;;;;5050890;28;19924;-52
2022/02/24 11:01:17;;;;;;;;;;;10.10;99.90;;;;;;5050751;28;19917;-50
2022/02/24 11:04:03;;;;;;;;;;;10.20;99.90;;;;;;5050850;28;19917;-51
2022/02/24 11:06:33;;;;;;;;;;;10.20;99.90;;;;;;5050315;28;19923;-52
2022/02/24 11:09:00;;;;;;;;;;;10.20;99.90;;;;;;5050511;28;19925;-54
2022/02/24 11:11:29;;;;;;;;;;;10.30;99.90;;;;;;5050675;28;20161;-52
2022/02/24 11:13:57;;;;;;;;;;;10.20;99.90;;;;;;5050688;28;19917;-52
2022/02/24 11:16:23;;;;;;;;;;;10.60;99.90;;;;;;5083098;28;19916;-53
2022/02/24 11:18:50;;;;;;;;;;;10.50;99.90;;;;;;5093158;28;20362;-51
2022/02/24 11:21:16;;;;;;;;;;;10.50;99.90;;;;;;5093026;28;20327;-53
2022/02/24 11:23:43;;;;;;;;;;;10.50;99.90;;;;;;5092896;28;19916;-53
2022/02/24 11:26:08;;;;;;;;;;;10.60;99.90;;;;;;5093029;28;20289;-51
2022/02/24 11:28:38;;;;;;;;;;;10.80;99.90;;;;;;5092753;28;19920;-52
2022/02/24 11:31:15;;;;;;;;;;;11.00;99.90;;;;;;5091905;28;19916;-52
2022/02/24 11:33:41;;;;;;;;;;;11.30;99.90;;;;;;5092952;28;20046;-53
2022/02/24 11:36:08;;;;;;;;;;;11.30;99.90;;;;;;5092623;28;20534;-51
2022/02/24 11:38:35;;;;;;;;;;;11.30;99.90;;;;;;5093192;28;19922;-47
2022/02/24 11:41:04;;;;;;;;;;;11.10;99.90;;;;;;5092783;28;20032;-50
2022/02/24 11:43:32;;;;;;;;;;;10.90;99.90;;;;;;5091237;28;20449;-51
2022/02/24 11:45:58;;;;;;;;;;;10.80;99.90;;;;;;5092567;28;19955;-51
2022/02/24 11:48:24;;;;;;;;;;;10.60;99.90;;;;;;5092438;28;20040;-49
2022/02/24 11:50:59;;;;;;;;;;;10.40;99.90;;;;;;5092850;28;19935;-50
2022/02/24 11:53:27;;;;;;;;;;;10.30;99.90;;;;;;5092745;28;19916;-50
2022/02/24 11:55:52;;;;;;;;;;;10.30;99.90;;;;;;5092268;28;20320;-50
2022/02/24 11:58:37;;;;;;;;;;;10.20;99.90;;;;;;5092393;28;19961;-48
2022/02/24 12:01:05;;;;;;;;;;;10.10;99.90;;;;;;5092194;28;19916;-52
2022/02/24 12:03:49;;;;;;;;;;;10.00;99.90;;;;;;5092491;28;19942;-49
2022/02/24 12:06:16;;;;;;;;;;;9.90;99.90;;;;;;5092366;28;20002;-52
2022/02/24 12:09:02;;;;;;;;;;;9.90;99.90;;;;;;5092693;28;19934;-49
2022/02/24 12:11:36;;;;;;;;;;;9.80;99.90;;;;;;5049838;28;19924;-49
2022/02/24 12:14:07;;;;;;;;;;;9.70;99.90;;;;;;5049790;28;19916;-50
2022/02/24 12:16:32;;;;;;;;;;;9.60;99.90;;;;;;5032939;28;19921;-52
2022/02/24 12:18:58;;;;;;;;;;;9.50;99.90;;;;;;5049703;28;20329;-51
2022/02/24 12:21:26;;;;;;;;;;;9.50;99.90;;;;;;5049833;28;20421;-47
2022/02/24 12:23:53;;;;;;;;;;;9.50;99.90;;;;;;5049738;28;19917;-50
2022/02/24 12:26:34;;;;;;;;;;;9.40;99.90;;;;;;5049654;28;19923;-46
2022/02/24 12:29:18;;;;;;;;;;;9.30;99.90;;;;;;5049799;28;19924;-51
2022/02/24 12:31:45;;;;;;;;;;;9.30;99.90;;;;;;5049659;28;19917;-50
2022/02/24 12:34:10;;;;;;;;;;;9.20;99.90;;;;;;5049489;28;19924;-52
2022/02/24 12:36:36;;;;;;;;;;;9.10;99.90;;;;;;5049389;28;20361;-50
2022/02/24 12:39:04;;;;;;;;;;;9.00;99.90;;;;;;5049648;28;19924;-49
2022/02/24 12:41:30;;;;;;;;;;;9.00;99.90;;;;;;5049523;28;19920;-52
2022/02/24 12:43:55;;;;;;;;;;;8.90;99.90;;;;;;5049522;28;20024;-58
2022/02/24 12:46:21;;;;;;;;;;;8.90;99.90;;;;;;5049308;28;19917;-59
2022/02/24 12:48:46;;;;;;;;;;;8.70;99.90;;;;;;5075025;28;19927;-60
2022/02/24 12:51:12;;;;;;;;;;;8.70;99.90;;;;;;5091971;28;19920;-60
2022/02/24 12:53:38;;;;;;;;;;;8.70;99.90;;;;;;5091895;28;19916;-59
2022/02/24 12:56:03;;;;;;;;;;;8.70;99.90;;;;;;5094988;28;19922;-60
2022/02/24 12:58:29;;;;;;;;;;;8.60;99.90;;;;;;5095658;28;19916;-60
2022/02/24 13:00:56;;;;;;;;;;;8.60;99.90;;;;;;5096127;28;20303;-60
2022/02/24 13:03:25;;;;;;;;;;;8.60;99.90;;;;;;5094173;28;20374;-59
2022/02/24 13:05:50;;;;;;;;;;;8.50;99.90;;;;;;5095595;28;19923;-60
2022/02/24 13:11:22;;;;;;;;;;;8.40;99.90;;;;;;5072874;28;19916;-59
2022/02/24 13:13:51;;;;;;;;;;;8.30;99.90;;;;;;5073086;28;19921;-59
2022/02/24 13:16:18;;;;;;;;;;;8.20;99.90;;;;;;5072861;28;19917;-59
2022/02/24 13:18:44;;;;;;;;;;;8.10;99.90;;;;;;5072814;28;19922;-59
2022/02/24 13:21:10;;;;;;;;;;;8.00;99.90;;;;;;5072700;28;19995;-59
2022/02/24 13:23:37;;;;;;;;;;;8.00;99.90;;;;;;5072941;28;19952;-60
2022/02/24 13:26:03;;;;;;;;;;;8.00;99.90;;;;;;5073110;28;19955;-59
2022/02/24 13:28:30;;;;;;;;;;;7.80;99.90;;;;;;5073426;28;19931;-60
2022/02/24 13:30:59;;;;;;;;;;;7.70;99.90;;;;;;5073390;28;20528;-59
2022/02/24 13:33:29;;;;;;;;;;;7.60;99.90;;;;;;5073452;28;19923;-59
2022/02/24 13:35:55;;;;;;;;;;;7.60;99.90;;;;;;5073134;28;19920;-60
2022/02/24 13:38:20;;;;;;;;;;;7.60;99.90;;;;;;5072995;28;19964;-59
2022/02/24 13:40:47;;;;;;;;;;;7.50;99.90;;;;;;5073237;28;19962;-60
2022/02/24 13:43:13;;;;;;;;;;;7.50;99.90;;;;;;5092945;28;19939;-59
2022/02/24 13:45:40;;;;;;;;;;;7.30;99.90;;;;;;5094114;28;20358;-59
2022/02/24 13:48:09;;;;;;;;;;;7.10;99.90;;;;;;5095897;28;19924;-59
2022/02/24 13:50:45;;;;;;;;;;;6.90;99.90;;;;;;5095146;28;20366;-61
2022/02/24 13:53:30;;;;;;;;;;;6.70;99.90;;;;;;5095318;28;19916;-60
2022/02/24 13:55:55;;;;;;;;;;;6.50;99.90;;;;;;5095567;28;19916;-60
2022/02/24 13:58:28;;;;;;;;;;;6.40;99.90;;;;;;5094122;28;20282;-61
2022/02/24 14:00:55;;;;;;;;;;;6.30;99.90;;;;;;5095394;28;19916;-60
2022/02/24 14:03:27;;;;;;;;;;;6.30;99.90;;;;;;5095254;28;19923;-60
2022/02/24 14:06:03;;;;;;;;;;;6.20;99.90;;;;;;5094263;28;20037;-59
2022/02/24 14:08:28;;;;;;;;;;;6.20;99.90;;;;;;5094885;28;19970;-60
2022/02/24 14:11:04;;;;;;;;;;;6.00;99.90;;;;;;5095163;28;19969;-60
2022/02/24 14:13:29;;;;;;;;;;;5.80;99.90;;;;;;5094629;28;19916;-59
2022/02/24 14:15:55;;;;;;;;;;;5.50;99.90;;;;;;5094881;28;20316;-60
2022/02/24 14:18:20;;;;;;;;;;;5.40;99.90;;;;;;5095098;28;20350;-60
2022/02/24 14:20:47;;;;;;;;;;;5.20;99.90;;;;;;5094644;28;19923;-59
2022/02/24 14:23:13;;;;;;;;;;;5.10;99.90;;;;;;5094995;28;20381;-60
2022/02/24 14:25:39;;;;;;;;;;;4.90;99.90;;;;;;5094617;28;19959;-59
2022/02/24 14:28:05;;;;;;;;;;;4.70;99.90;;;;;;5093054;28;20281;-60